Date,TemperatureHighF,TemperatureAvgF,TemperatureLowF,DewpointHighF,DewpointAvgF,DewpointLowF,HumidityHigh,HumidityAvg,HumidityLow,PressureMaxIn,PressureMinIn,WindSpeedMaxMPH,WindSpeedAvgMPH,GustSpeedMaxMPH,PrecipitationSumIn
2013-2-1,11.7,7.8,3.8,8.8,3.2,-0.2,89,81,65,30.36,30.02,12,5,16,0.00
2013-2-2,22.7,15.6,6.2,19.6,12.1,2.9,92,86,74,30.28,30.00,9,3,12,0.00
2013-2-3,19.9,15.3,10.4,16.9,11.6,7.3,91,85,79,30.07,29.95,15,3,17,0.00
2013-2-4,23.7,19.8,16.5,20.5,17.4,13.4,93,90,84,30.08,29.89,5,2,6,0.00
2013-2-5,28.9,21.2,9.2,26.1,18.6,7.1,95,90,76,30.03,29.84,9,3,12,0.00
2013-2-6,35.0,26.5,17.9,24.6,20.0,16.0,95,77,55,30.29,30.03,6,2,9,0.09
2013-2-7,39.3,30.4,23.8,30.7,25.4,19.8,95,82,69,30.23,29.83,7,4,12,0.12
2013-2-8,31.3,28.1,21.4,30.0,24.3,19.3,96,86,74,30.38,29.83,12,5,15,0.00
2013-2-9,33.5,23.5,12.4,24.0,18.6,10.6,95,82,64,30.46,30.23,8,3,11,0.00
2013-2-10,42.9,33.4,25.3,42.2,29.2,20.7,98,85,74,30.23,29.62,9,5,13,0.09
2013-2-11,46.1,35.2,28.8,43.5,28.4,21.9,97,76,67,29.97,29.57,19,11,25,0.01
2013-2-12,29.8,27.7,26.6,23.4,22.3,21.3,84,80,74,30.11,29.97,17,6,22,0.00
2013-2-13,43.3,31.4,19.6,30.6,25.0,17.9,94,78,58,29.97,29.75,6,2,11,0.00
2013-2-14,38.7,34.3,30.5,33.9,29.6,24.7,92,83,71,29.94,29.70,19,7,25,0.00
2013-2-15,31.8,25.5,18.4,26.1,19.9,14.6,91,79,59,30.18,29.94,9,4,12,0.00
2013-2-16,20.7,17.0,9.9,18.7,12.6,6.7,93,83,62,30.16,30.09,14,5,19,0.00
2013-2-17,27.1,16.6,3.7,15.8,10.4,0.4,93,77,57,30.28,30.15,4,1,5,0.00
2013-2-18,50.0,35.4,21.1,41.7,27.7,13.9,92,74,60,30.19,29.50,13,7,23,0.05
2013-2-19,43.5,21.6,13.9,41.4,18.0,10.2,94,86,76,30.07,29.44,20,11,26,0.00
2013-2-20,21.4,17.9,14.0,16.5,13.9,11.3,90,84,76,30.35,30.07,13,8,20,0.00
2013-2-21,25.1,21.6,18.5,20.1,16.7,14.0,86,81,77,30.42,30.16,15,6,18,0.00
2013-2-22,32.4,26.3,20.1,31.3,23.9,15.8,96,90,80,30.16,29.88,15,7,21,0.00
2013-2-23,28.7,26.1,23.7,23.3,20.6,18.0,88,80,66,29.98,29.92,7,4,15,0.00
2013-2-24,34.7,27.4,21.7,26.3,22.2,19.1,94,81,68,30.19,29.96,12,4,15,0.01
2013-2-25,40.1,28.9,15.9,28.3,22.9,14.2,96,80,58,30.25,30.07,6,2,8,0.00
2013-2-26,33.0,30.9,28.4,30.8,26.8,22.5,96,85,70,30.08,29.48,13,6,20,0.00
2013-2-27,34.3,32.1,31.3,32.8,31.1,30.5,98,96,93,29.61,29.47,5,1,6,0.34
2013-2-28,36.9,32.8,30.5,31.5,30.0,26.8,98,90,78,29.99,29.61,7,4,11,0.23